Terminal Aerodrome Forecast
Issued by NWS

Home | Current Version | Previous Version | Graphics & Text | Print | Product List | Glossary On
Versions: 1 2 3 4 5 6 7 8 9 10 11 12 13 14 15 16 17 18 19 20 21 22 23 24 25 26 27 28 29 30 31 32 33
000
FTUS43 KTOP 010100 AAA
TAFFOE
TAF AMD
KFOE 010122Z 0101/0124 17017G23KT P6SM BKN250
     FM010230 17013G21KT P6SM VCTS BKN050CB
      TEMPO 0103/0107 VRB25G40KT 2SM +TSRA BR BKN025CB
     FM010900 21006KT P6SM BKN150
     FM011800 33008KT P6SM SCT200=

USA.gov is the U.S. government's official web portal to all federal, state and local government web resources and services.